createdAt,value
2017-11-22T00:01:37.129Z,12.20
2017-11-22T00:03:39.792Z,12.63
2017-11-22T00:05:43.252Z,12.47
2017-11-22T00:07:45.939Z,12.40
2017-11-22T00:09:48.673Z,12.57
2017-11-22T00:11:52.126Z,11.80
2017-11-22T00:13:54.789Z,10.70
2017-11-22T00:15:57.425Z,11.70
2017-11-22T00:18:00.912Z,11.93
2017-11-22T00:20:04.358Z,11.90
2017-11-22T00:22:07.020Z,11.63
2017-11-22T00:24:09.798Z,12.13
2017-11-22T00:26:12.473Z,11.13
2017-11-22T00:28:15.148Z,11.60
2017-11-22T00:30:17.919Z,12.10
2017-11-22T00:32:20.580Z,10.40
2017-11-22T00:34:24.012Z,10.77
2017-11-22T00:36:26.758Z,11.97
2017-11-22T00:38:29.467Z,11.47
2017-11-22T00:40:32.148Z,12.27
2017-11-22T00:42:34.817Z,12.80
2017-11-22T00:44:37.480Z,12.07
2017-11-22T00:46:40.172Z,11.27
2017-11-22T00:48:42.826Z,11.73
2017-11-22T00:50:45.512Z,12.80
2017-11-22T00:52:48.172Z,10.80
2017-11-22T00:54:50.845Z,10.23
2017-11-22T00:56:53.542Z,11.07
2017-11-22T00:58:56.204Z,11.20
2017-11-22T01:00:58.954Z,11.37
2017-11-22T01:03:02.381Z,11.30
2017-11-22T01:05:05.101Z,11.87
2017-11-22T01:07:07.785Z,10.90
2017-11-22T01:09:10.472Z,12.33
2017-11-22T01:11:13.164Z,11.40
2017-11-22T01:13:16.627Z,11.40
2017-11-22T01:15:19.324Z,10.80
2017-11-22T01:17:22.759Z,10.63
2017-11-22T01:19:26.190Z,10.90
2017-11-22T01:21:29.038Z,10.60
2017-11-22T01:23:31.708Z,10.57
2017-11-22T01:25:34.415Z,10.80
2017-11-22T01:27:37.092Z,10.20
2017-11-22T01:29:39.748Z,10.50
2017-11-22T01:31:42.445Z,10.17
2017-11-22T01:33:45.117Z,10.03
2017-11-22T01:35:47.800Z,9.73
2017-11-22T01:37:50.475Z,10.00
2017-11-22T01:39:53.147Z,10.10
2017-11-22T01:41:55.830Z,9.77
2017-11-22T01:43:58.478Z,9.70
2017-11-22T01:46:01.228Z,10.67
2017-11-22T01:48:03.933Z,10.00
2017-11-22T01:50:06.665Z,10.30
2017-11-22T01:52:10.106Z,10.90
2017-11-22T01:54:12.768Z,11.07
2017-11-22T01:56:15.441Z,10.30
2017-11-22T01:58:18.097Z,10.67
2017-11-22T02:00:20.794Z,10.60
2017-11-22T02:02:23.475Z,10.33
2017-11-22T02:04:26.154Z,10.57
2017-11-22T02:06:28.843Z,10.20
2017-11-22T02:08:31.503Z,11.03
2017-11-22T02:10:34.183Z,10.10
2017-11-22T02:12:36.868Z,10.20
2017-11-22T02:14:39.559Z,10.17
2017-11-22T02:16:43.001Z,10.70
2017-11-22T02:18:57.123Z,10.83
2017-11-22T02:20:59.830Z,10.80
2017-11-22T02:23:02.473Z,10.60
2017-11-22T02:25:05.156Z,10.77
2017-11-22T02:27:07.844Z,11.07
2017-11-22T02:29:11.253Z,10.60
2017-11-22T02:31:14.035Z,10.60
2017-11-22T02:33:16.682Z,11.13
2017-11-22T02:35:20.119Z,11.20
2017-11-22T02:37:23.138Z,11.60
2017-11-22T02:39:25.879Z,10.20
2017-11-22T02:41:28.576Z,10.40
2017-11-22T02:43:31.262Z,10.30
2017-11-22T02:45:33.997Z,9.87
2017-11-22T02:47:36.698Z,10.17
2017-11-22T02:49:39.369Z,10.63
2017-11-22T02:51:42.059Z,9.70
2017-11-22T02:53:45.481Z,11.40
2017-11-22T02:55:48.192Z,10.37
2017-11-22T02:57:50.901Z,10.47
2017-11-22T02:59:53.576Z,10.10
2017-11-22T03:01:56.250Z,11.10
2017-11-22T03:03:58.917Z,10.53
2017-11-22T03:06:02.619Z,10.37
2017-11-22T03:08:05.265Z,11.23
2017-11-22T03:10:08.671Z,9.93
2017-11-22T03:12:11.352Z,10.50
2017-11-22T03:14:13.993Z,9.83
2017-11-22T03:16:17.422Z,10.30
2017-11-22T03:18:20.080Z,9.93
2017-11-22T03:20:23.517Z,9.60
2017-11-22T03:22:26.272Z,9.40
2017-11-22T03:24:28.919Z,10.50
2017-11-22T03:26:32.355Z,11.13
2017-11-22T03:28:35.012Z,10.63
2017-11-22T03:30:37.671Z,10.10
2017-11-22T03:32:40.347Z,10.13
2017-11-22T03:34:43.789Z,11.17
2017-11-22T03:36:46.515Z,10.17
2017-11-22T03:38:49.976Z,10.17
2017-11-22T03:40:52.713Z,10.30
2017-11-22T03:42:55.409Z,9.90
2017-11-22T03:44:58.172Z,10.10
2017-11-22T03:47:00.856Z,10.33
2017-11-22T03:49:06.513Z,10.47
2017-11-22T03:51:12.338Z,10.03
2017-11-22T03:53:20.667Z,9.87
2017-11-22T03:55:23.332Z,10.10
2017-11-22T03:57:26.063Z,10.00
2017-11-22T03:59:28.778Z,9.90
2017-11-22T04:01:31.459Z,10.53
2017-11-22T04:03:48.913Z,10.20
2017-11-22T04:05:56.503Z,10.33
2017-11-22T04:07:59.267Z,9.60
2017-11-22T04:10:01.938Z,10.67
2017-11-22T04:12:11.348Z,10.43
2017-11-22T04:14:14.019Z,9.40
2017-11-22T04:16:16.734Z,9.67
2017-11-22T04:18:20.465Z,10.07
2017-11-22T04:20:28.849Z,10.33
2017-11-22T04:22:31.520Z,9.77
2017-11-22T04:24:34.171Z,10.13
2017-11-22T04:26:37.906Z,9.97
2017-11-22T04:28:40.550Z,9.67
2017-11-22T04:30:43.305Z,9.63
2017-11-22T04:32:46.846Z,11.90
2017-11-22T04:34:49.496Z,10.30
2017-11-22T04:36:52.173Z,10.43
2017-11-22T04:38:54.838Z,10.47
2017-11-22T04:40:57.622Z,10.57
2017-11-22T04:43:00.340Z,10.70
2017-11-22T04:45:03.020Z,10.60
2017-11-22T04:47:05.745Z,9.60
2017-11-22T04:49:08.428Z,9.73
2017-11-22T04:51:11.154Z,10.50
2017-11-22T04:53:13.898Z,10.77
2017-11-22T04:55:16.572Z,10.40
2017-11-22T04:57:19.302Z,10.87
2017-11-22T04:59:22.745Z,11.00
2017-11-22T05:01:25.439Z,10.93
2017-11-22T05:03:28.132Z,10.80
2017-11-22T05:05:30.817Z,11.27
2017-11-22T05:07:33.552Z,10.30
2017-11-22T05:09:36.230Z,10.53
2017-11-22T05:11:38.948Z,11.93
2017-11-22T05:13:41.609Z,11.43
2017-11-22T05:15:44.289Z,10.50
2017-11-22T05:17:46.973Z,11.70
2017-11-22T05:19:49.645Z,11.60
2017-11-22T05:21:52.379Z,12.27
2017-11-22T05:23:55.051Z,12.13
2017-11-22T05:25:57.733Z,12.17
2017-11-22T05:28:00.413Z,12.33
2017-11-22T05:30:03.066Z,12.87
2017-11-22T05:32:06.508Z,12.60
2017-11-22T05:34:09.165Z,11.97
2017-11-22T05:36:11.936Z,12.53
2017-11-22T05:38:14.647Z,12.73
2017-11-22T05:40:17.396Z,12.67
2017-11-22T05:42:20.088Z,12.83
2017-11-22T05:44:22.769Z,12.30
2017-11-22T05:46:25.447Z,13.23
2017-11-22T05:48:28.112Z,12.20
2017-11-22T05:50:30.751Z,13.20
2017-11-22T05:52:34.185Z,13.53
2017-11-22T05:54:36.859Z,13.60
2017-11-22T05:56:39.566Z,13.60
2017-11-22T05:58:42.990Z,13.80
2017-11-22T06:00:54.213Z,12.90
2017-11-22T06:02:56.904Z,13.67
2017-11-22T06:05:01.081Z,12.73
2017-11-22T06:07:03.796Z,13.67
2017-11-22T06:09:06.447Z,13.90
2017-11-22T06:11:09.112Z,13.30
2017-11-22T06:13:11.798Z,13.77
2017-11-22T06:15:14.476Z,13.63
2017-11-22T06:17:17.162Z,13.73
2017-11-22T06:19:19.825Z,14.77
2017-11-22T06:21:22.504Z,13.67
2017-11-22T06:23:25.188Z,14.27
2017-11-22T06:25:27.845Z,13.90
2017-11-22T06:27:30.523Z,14.30
2017-11-22T06:29:36.923Z,14.73
2017-11-22T06:31:40.382Z,13.80
2017-11-22T06:33:43.030Z,15.80
2017-11-22T06:35:45.712Z,15.20
2017-11-22T06:37:48.373Z,13.10
2017-11-22T06:39:51.018Z,15.30
2017-11-22T06:41:54.477Z,14.93
2017-11-22T06:43:57.142Z,14.17
2017-11-22T06:45:59.821Z,13.87
2017-11-22T06:48:02.494Z,15.00
2017-11-22T06:50:05.163Z,16.10
2017-11-22T06:52:07.853Z,14.20
2017-11-22T06:54:10.509Z,14.43
2017-11-22T06:56:13.159Z,14.30
2017-11-22T06:58:15.830Z,15.67
2017-11-22T07:00:19.257Z,14.73
2017-11-22T07:02:27.795Z,16.03
2017-11-22T07:04:30.446Z,14.60
2017-11-22T07:06:33.144Z,15.53
2017-11-22T07:08:35.797Z,14.60
2017-11-22T07:10:38.457Z,13.10
2017-11-22T07:12:41.397Z,15.60
2017-11-22T07:14:44.073Z,15.00
2017-11-22T07:16:52.450Z,14.57
2017-11-22T07:18:55.108Z,15.60
2017-11-22T07:20:57.848Z,15.13
2017-11-22T07:23:00.576Z,15.53
2017-11-22T07:25:03.238Z,15.07
2017-11-22T07:27:05.921Z,15.53
2017-11-22T07:29:08.707Z,15.07
2017-11-22T07:31:11.382Z,14.70
2017-11-22T07:33:14.068Z,15.90
2017-11-22T07:35:16.747Z,15.27
2017-11-22T07:37:25.150Z,14.70
2017-11-22T07:39:27.813Z,13.93
2017-11-22T07:41:30.485Z,14.40
2017-11-22T07:43:33.171Z,15.30
2017-11-22T07:45:35.838Z,15.30
2017-11-22T07:47:38.537Z,15.83
2017-11-22T07:49:41.200Z,14.70
2017-11-22T07:51:49.656Z,15.57
2017-11-22T07:53:52.323Z,15.10
2017-11-22T07:55:54.983Z,14.40
2017-11-22T07:57:57.673Z,15.30
2017-11-22T08:00:00.405Z,14.67
2017-11-22T08:02:03.212Z,15.60
2017-11-22T08:04:11.595Z,14.50
2017-11-22T08:06:14.300Z,14.10
2017-11-22T08:08:17.140Z,15.90
2017-11-22T08:10:19.800Z,15.17
2017-11-22T08:12:23.252Z,16.10
2017-11-22T08:14:25.938Z,16.10
2017-11-22T08:16:28.666Z,15.63
2017-11-22T08:18:31.358Z,15.57
2017-11-22T08:20:35.165Z,17.13
2017-11-22T08:22:37.853Z,15.63
2017-11-22T08:24:41.800Z,15.80
2017-11-22T08:26:45.224Z,16.00
2017-11-22T08:28:48.144Z,17.20
2017-11-22T08:30:50.808Z,15.53
2017-11-22T08:32:53.720Z,16.40
2017-11-22T08:34:56.371Z,16.17
2017-11-22T08:36:59.120Z,16.50
2017-11-22T08:39:01.800Z,16.10
2017-11-22T08:41:14.100Z,15.47
2017-11-22T08:43:22.472Z,16.33
2017-11-22T08:45:25.908Z,16.60
2017-11-22T08:47:28.583Z,15.30
2017-11-22T08:49:31.266Z,15.67
2017-11-22T08:51:33.960Z,15.70
2017-11-22T08:53:36.647Z,15.43
2017-11-22T08:55:44.922Z,15.97
2017-11-22T08:57:53.327Z,15.27
2017-11-22T09:00:01.774Z,15.23
2017-11-22T09:02:05.219Z,15.30
2017-11-22T09:04:09.754Z,16.10
2017-11-22T09:06:18.216Z,16.10
2017-11-22T09:08:20.869Z,15.80
2017-11-22T09:10:23.545Z,15.10
2017-11-22T09:14:55.066Z,15.63
2017-11-22T09:16:58.682Z,16.50
2017-11-22T09:19:01.415Z,15.20
2017-11-22T09:21:04.863Z,16.03
2017-11-22T09:23:07.558Z,15.07
2017-11-22T09:25:10.306Z,16.70
2017-11-22T09:27:18.746Z,14.90
2017-11-22T09:29:21.513Z,15.63
2017-11-22T09:31:29.972Z,14.80
2017-11-22T09:33:33.432Z,15.20
2017-11-22T09:35:36.138Z,15.57
2017-11-22T09:37:38.785Z,15.13
2017-11-22T09:39:41.454Z,15.30
2017-11-22T09:41:44.146Z,14.90
2017-11-22T09:43:46.795Z,17.30
2017-11-22T09:45:49.465Z,14.13
2017-11-22T09:47:52.156Z,14.70
2017-11-22T09:49:54.812Z,14.50
2017-11-22T09:51:57.528Z,15.27
2017-11-22T09:54:00.193Z,15.17
2017-11-22T09:56:02.859Z,14.97
2017-11-22T09:58:05.554Z,14.57
2017-11-22T10:00:08.215Z,15.23
2017-11-22T10:02:10.883Z,14.93
2017-11-22T10:04:13.551Z,13.70
2017-11-22T10:06:16.221Z,14.43
2017-11-22T10:08:18.919Z,14.30
2017-11-22T10:10:21.584Z,12.80
2017-11-22T10:12:24.256Z,13.90
2017-11-22T10:14:26.944Z,13.80
2017-11-22T10:16:29.608Z,14.00
2017-11-22T10:18:32.310Z,14.20
2017-11-22T10:20:35.010Z,13.80
2017-11-22T10:22:43.541Z,13.33
2017-11-22T10:24:47.018Z,13.73
2017-11-22T10:26:55.383Z,14.43
2017-11-22T10:29:03.739Z,13.70
2017-11-22T10:31:06.421Z,13.50
2017-11-22T10:33:14.912Z,13.70
2017-11-22T10:35:17.656Z,12.83
2017-11-22T10:37:20.337Z,13.80
2017-11-22T10:39:23.023Z,13.00
2017-11-22T10:41:25.769Z,13.27
2017-11-22T10:43:28.486Z,12.67
2017-11-22T10:45:31.212Z,13.10
2017-11-22T10:47:33.905Z,14.17
2017-11-22T10:49:36.597Z,14.17
2017-11-22T10:51:39.249Z,14.27
2017-11-22T10:53:41.956Z,13.53
2017-11-22T10:55:44.803Z,12.80
2017-11-22T10:57:47.516Z,13.53
2017-11-22T10:59:50.196Z,12.10
2017-11-22T11:01:52.921Z,14.00
2017-11-22T11:03:56.346Z,12.97
2017-11-22T11:05:59.046Z,13.80
2017-11-22T11:08:01.749Z,12.83
2017-11-22T11:10:04.460Z,12.47
2017-11-22T11:12:07.137Z,12.63
2017-11-22T11:14:09.809Z,13.30
2017-11-22T11:16:12.496Z,12.03
2017-11-22T11:18:15.168Z,12.40
2017-11-22T11:20:17.818Z,12.63
2017-11-22T11:22:21.276Z,12.10
2017-11-22T11:24:23.947Z,12.07
2017-11-22T11:26:26.646Z,12.40
2017-11-22T11:28:29.335Z,11.03
2017-11-22T11:30:31.986Z,12.43
2017-11-22T11:32:35.930Z,11.90
2017-11-22T11:34:39.369Z,12.10
2017-11-22T11:36:42.071Z,12.03
2017-11-22T11:38:44.759Z,11.40
2017-11-22T11:40:47.463Z,11.70
2017-11-22T11:42:50.305Z,12.03
2017-11-22T11:44:53.365Z,11.20
2017-11-22T11:46:56.059Z,11.80
2017-11-22T11:48:58.748Z,11.77
2017-11-22T11:51:01.419Z,11.00
2017-11-22T11:53:04.201Z,11.50
2017-11-22T11:55:07.037Z,11.77
2017-11-22T11:57:09.736Z,11.40
2017-11-22T11:59:12.430Z,10.90
2017-11-22T12:01:15.110Z,12.40
2017-11-22T12:03:17.789Z,11.30
2017-11-22T12:05:20.618Z,11.87
2017-11-22T12:07:23.289Z,11.00
2017-11-22T12:09:25.980Z,10.50
2017-11-22T12:11:28.644Z,11.33
2017-11-22T12:13:31.296Z,11.50
2017-11-22T12:15:34.751Z,10.40
2017-11-22T12:17:37.407Z,10.60
2017-11-22T12:19:40.093Z,10.63
2017-11-22T12:21:48.636Z,11.30
2017-11-22T12:23:51.301Z,10.50
2017-11-22T12:25:53.979Z,11.63
2017-11-22T12:27:56.643Z,10.80
2017-11-22T12:29:59.340Z,11.47
2017-11-22T12:32:01.997Z,11.07
2017-11-22T12:34:04.646Z,9.80
2017-11-22T12:36:07.345Z,10.50
2017-11-22T12:38:10.000Z,10.07
2017-11-22T12:40:12.689Z,10.50
2017-11-22T12:42:15.388Z,11.00
2017-11-22T12:44:18.878Z,10.90
2017-11-22T12:46:21.560Z,9.93
2017-11-22T12:48:24.213Z,10.67
2017-11-22T12:50:26.904Z,10.50
2017-11-22T12:52:29.588Z,10.47
2017-11-22T12:54:32.296Z,10.63
2017-11-22T12:56:35.724Z,10.30
2017-11-22T12:58:38.398Z,10.70
2017-11-22T13:00:41.112Z,11.30
2017-11-22T13:02:43.800Z,10.63
2017-11-22T13:04:46.509Z,10.30
2017-11-22T13:06:49.299Z,10.10
2017-11-22T13:08:52.002Z,9.83
2017-11-22T13:10:57.757Z,9.20
2017-11-22T13:13:00.464Z,10.20
2017-11-22T13:15:03.907Z,10.00
2017-11-22T13:17:06.580Z,10.40
2017-11-22T13:19:09.261Z,9.90
2017-11-22T13:21:11.966Z,10.43
2017-11-22T13:23:14.625Z,10.10
2017-11-22T13:25:17.477Z,9.57
2017-11-22T13:27:22.004Z,10.23
2017-11-22T13:29:24.677Z,9.37
2017-11-22T13:31:27.399Z,10.00
2017-11-22T13:33:30.078Z,9.20
2017-11-22T13:35:34.313Z,8.90
2017-11-22T13:37:37.793Z,8.87
2017-11-22T13:39:40.512Z,9.37
2017-11-22T13:41:46.103Z,9.93
2017-11-22T13:43:48.783Z,8.13
2017-11-22T13:45:52.352Z,9.37
2017-11-22T13:47:55.073Z,9.43
2017-11-22T13:49:58.569Z,9.30
2017-11-22T13:52:02.100Z,9.00
2017-11-22T13:54:04.800Z,8.83
2017-11-22T13:56:07.523Z,8.53
2017-11-22T13:58:10.993Z,8.53
2017-11-22T14:00:14.478Z,8.23
2017-11-22T14:02:17.199Z,8.80
2017-11-22T14:04:19.888Z,8.20
2017-11-22T14:06:22.602Z,8.90
2017-11-22T14:08:25.294Z,8.60
2017-11-22T14:10:27.966Z,8.17
2017-11-22T14:12:30.679Z,8.33
2017-11-22T14:14:33.374Z,8.03
2017-11-22T14:16:36.105Z,8.00
2017-11-22T14:18:38.805Z,9.00
2017-11-22T14:20:42.709Z,8.07
2017-11-22T14:22:46.213Z,8.53
2017-11-22T14:24:48.925Z,8.33
2017-11-22T14:26:51.652Z,8.03
2017-11-22T14:28:55.113Z,7.37
2017-11-22T14:30:57.899Z,8.00
2017-11-22T14:33:00.635Z,7.77
2017-11-22T14:35:03.338Z,8.60
2017-11-22T14:37:06.121Z,8.47
2017-11-22T14:39:09.007Z,8.77
2017-11-22T14:41:11.731Z,8.03
2017-11-22T14:43:14.586Z,8.70
2017-11-22T14:45:17.275Z,8.20
2017-11-22T14:47:20.779Z,8.43
2017-11-22T14:49:24.241Z,8.27
2017-11-22T14:51:26.960Z,8.47
2017-11-22T14:53:29.640Z,8.37
2017-11-22T14:55:32.344Z,8.00
2017-11-22T14:57:35.059Z,8.03
2017-11-22T14:59:37.827Z,7.80
2017-11-22T15:01:40.610Z,7.87
2017-11-22T15:03:43.442Z,7.83
2017-11-22T15:05:46.262Z,7.80
2017-11-22T15:07:49.006Z,8.60
2017-11-22T15:09:51.717Z,7.73
2017-11-22T15:11:54.456Z,8.00
2017-11-22T15:13:57.163Z,7.77
2017-11-22T15:15:59.859Z,6.83
2017-11-22T15:18:02.605Z,7.93
2017-11-22T15:20:05.314Z,8.33
2017-11-22T15:22:08.063Z,6.60
2017-11-22T15:24:10.820Z,7.33
2017-11-22T15:26:14.609Z,6.80
2017-11-22T15:28:17.343Z,7.37
2017-11-22T15:30:20.031Z,6.47
2017-11-22T15:32:22.730Z,6.40
2017-11-22T15:34:25.446Z,7.20
2017-11-22T15:36:28.164Z,7.60
2017-11-22T15:38:30.892Z,7.03
2017-11-22T15:40:33.570Z,8.13
2017-11-22T15:42:36.275Z,7.10
2017-11-22T15:44:38.983Z,7.30
2017-11-22T15:46:42.491Z,7.60
2017-11-22T15:48:45.155Z,7.33
2017-11-22T15:50:48.648Z,6.93
2017-11-22T15:52:52.196Z,7.40
2017-11-22T15:54:54.872Z,7.93
2017-11-22T15:56:57.534Z,7.60
2017-11-22T15:59:01.331Z,7.80
2017-11-22T16:01:04.148Z,7.40
2017-11-22T16:03:06.937Z,8.73
2017-11-22T16:05:09.633Z,8.30
2017-11-22T16:07:13.263Z,8.37
2017-11-22T16:09:16.803Z,8.80
2017-11-22T16:11:19.494Z,8.13
2017-11-22T16:13:22.965Z,8.53
2017-11-22T16:15:25.740Z,8.63
2017-11-22T16:17:28.430Z,8.07
2017-11-22T16:19:31.296Z,8.30
2017-11-22T16:21:34.198Z,7.47
2017-11-22T16:23:36.865Z,9.20
2017-11-22T16:25:39.539Z,8.80
2017-11-22T16:27:42.235Z,7.80
2017-11-22T16:29:45.675Z,8.30
2017-11-22T16:31:48.695Z,8.93
2017-11-22T16:33:51.350Z,11.50
2017-11-22T16:35:54.006Z,19.77
2017-11-22T16:37:56.701Z,11.63
2017-11-22T16:39:59.384Z,11.80
2017-11-22T16:42:02.072Z,11.03
2017-11-22T16:44:04.752Z,10.93
2017-11-22T16:46:07.593Z,8.23
2017-11-22T16:48:10.302Z,9.27
2017-11-22T16:50:12.997Z,8.23
2017-11-22T16:52:15.701Z,8.27
2017-11-22T16:54:18.357Z,8.40
2017-11-22T16:56:21.789Z,7.77
2017-11-22T16:58:24.506Z,7.90
2017-11-22T17:00:27.243Z,8.03
2017-11-22T17:02:29.945Z,7.40
2017-11-22T17:04:32.719Z,7.90
2017-11-22T17:06:36.190Z,8.10
2017-11-22T17:08:38.888Z,8.17
2017-11-22T17:10:41.601Z,8.43
2017-11-22T17:12:44.344Z,8.63
2017-11-22T17:14:47.240Z,8.33
2017-11-22T17:16:49.978Z,8.20
2017-11-22T17:18:52.674Z,8.40
2017-11-22T17:20:55.417Z,7.90
2017-11-22T17:22:58.892Z,7.53
2017-11-22T17:25:02.353Z,8.23
2017-11-22T17:27:05.044Z,8.83
2017-11-22T17:29:07.724Z,8.30
2017-11-22T17:31:10.401Z,9.70
2017-11-22T17:33:13.608Z,9.43
2017-11-22T17:35:17.060Z,10.20
2017-11-22T17:37:20.506Z,10.40
2017-11-22T17:39:23.224Z,11.13
2017-11-22T17:41:25.916Z,10.03
2017-11-22T17:43:28.752Z,9.37
2017-11-22T17:45:31.455Z,9.43
2017-11-22T17:47:34.201Z,10.40
2017-11-22T17:49:36.933Z,10.50
2017-11-22T17:51:39.607Z,10.67
2017-11-22T17:53:42.336Z,10.50
2017-11-22T17:55:45.152Z,11.30
2017-11-22T17:57:47.863Z,11.10
2017-11-22T17:59:50.586Z,11.10
2017-11-22T18:01:53.421Z,10.37
2017-11-22T18:03:56.117Z,10.40
2017-11-22T18:05:59.556Z,10.67
2017-11-22T18:08:02.260Z,10.00
2017-11-22T18:10:04.912Z,9.57
2017-11-22T18:12:08.391Z,9.90
2017-11-22T18:14:11.128Z,10.47
2017-11-22T18:16:14.591Z,9.90
2017-11-22T18:18:17.297Z,9.30
2017-11-22T18:20:20.830Z,10.07
2017-11-22T18:22:23.605Z,8.90
2017-11-22T18:24:26.353Z,8.83
2017-11-22T18:26:29.785Z,8.30
2017-11-22T18:28:32.551Z,9.37
2017-11-22T18:30:35.226Z,9.17
2017-11-22T18:32:38.063Z,8.80
2017-11-22T18:34:40.803Z,9.00
2017-11-22T18:36:43.465Z,9.30
2017-11-22T18:38:46.255Z,9.07
2017-11-22T18:40:48.919Z,9.23
2017-11-22T18:42:51.624Z,10.40
2017-11-22T18:44:54.331Z,9.60
2017-11-22T18:46:57.020Z,9.40
2017-11-22T18:49:00.509Z,10.60
2017-11-22T18:51:04.008Z,9.60
2017-11-22T18:53:07.457Z,12.23
2017-11-22T18:55:10.169Z,11.00
2017-11-22T18:57:12.846Z,10.30
2017-11-22T18:59:15.529Z,9.57
2017-11-22T19:01:19.023Z,9.07
2017-11-22T19:03:22.472Z,9.53
2017-11-22T19:05:25.180Z,9.03
2017-11-22T19:07:27.940Z,9.90
2017-11-22T19:09:30.616Z,11.17
2017-11-22T19:11:33.305Z,10.30
2017-11-22T19:13:36.001Z,9.63
2017-11-22T19:15:39.414Z,9.60
2017-11-22T19:17:42.157Z,9.17
2017-11-22T19:19:45.615Z,9.03
2017-11-22T19:21:52.499Z,8.50
2017-11-22T19:23:55.969Z,7.93
2017-11-22T19:25:58.702Z,7.60
2017-11-22T19:28:01.411Z,7.40
2017-11-22T19:30:04.851Z,7.30
2017-11-22T19:32:07.569Z,8.90
2017-11-22T19:34:11.053Z,7.20
2017-11-22T19:36:13.717Z,6.70
2017-11-22T19:38:16.442Z,7.10
2017-11-22T19:40:19.132Z,7.50
2017-11-22T19:42:21.808Z,7.33
2017-11-22T19:44:24.878Z,7.20
2017-11-22T19:46:27.522Z,6.80
2017-11-22T19:48:30.198Z,7.23
2017-11-22T19:50:34.498Z,6.90
2017-11-22T19:52:37.165Z,7.17
2017-11-22T19:54:39.963Z,7.07
2017-11-22T19:56:43.386Z,7.03
2017-11-22T19:58:46.038Z,6.43
2017-11-22T20:00:49.525Z,6.20
2017-11-22T20:02:52.304Z,7.17
2017-11-22T20:04:54.969Z,7.17
2017-11-22T20:07:09.608Z,7.60
2017-11-22T20:09:12.291Z,7.83
2017-11-22T20:11:15.153Z,7.83
2017-11-22T20:13:17.891Z,7.57
2017-11-22T20:15:21.493Z,6.73
2017-11-22T20:17:25.138Z,8.53
2017-11-22T20:19:27.799Z,7.13
2017-11-22T20:21:30.687Z,6.90
2017-11-22T20:23:33.377Z,6.87
2017-11-22T20:25:36.022Z,6.80
2017-11-22T20:27:38.705Z,7.07
2017-11-22T20:29:41.359Z,6.47
2017-11-22T20:31:44.021Z,7.50
2017-11-22T20:33:47.473Z,7.50
2017-11-22T20:35:50.140Z,7.20
2017-11-22T20:37:52.879Z,7.20
2017-11-22T20:39:55.549Z,6.33
2017-11-22T20:41:58.963Z,6.43
2017-11-22T20:44:01.669Z,7.80
2017-11-22T20:46:04.345Z,6.70
2017-11-22T20:48:07.028Z,6.00
2017-11-22T20:50:09.688Z,6.80
2017-11-22T20:52:12.344Z,7.50
2017-11-22T20:54:15.547Z,6.47
2017-11-22T20:56:18.266Z,9.07
2017-11-22T20:58:20.973Z,8.60
2017-11-22T21:00:23.629Z,9.20
2017-11-22T21:02:27.111Z,8.67
2017-11-22T21:04:29.903Z,7.53
2017-11-22T21:06:33.323Z,7.80
2017-11-22T21:08:36.007Z,7.37
2017-11-22T21:10:38.661Z,6.27
2017-11-22T21:12:42.200Z,6.90
2017-11-22T21:14:45.378Z,7.30
2017-11-22T21:16:48.011Z,6.60
2017-11-22T21:18:51.459Z,6.60
2017-11-22T21:20:54.134Z,6.33
2017-11-22T21:22:56.819Z,7.10
2017-11-22T21:24:59.496Z,7.80
2017-11-22T21:27:02.166Z,6.20
2017-11-22T21:29:04.890Z,6.37
2017-11-22T21:31:07.681Z,6.70
2017-11-22T21:33:10.362Z,6.40
2017-11-22T21:35:13.034Z,7.20
2017-11-22T21:37:15.678Z,6.20
2017-11-22T21:39:18.361Z,6.77
2017-11-22T21:41:21.000Z,7.03
2017-11-22T21:43:23.754Z,6.20
2017-11-22T21:45:26.417Z,6.40
2017-11-22T21:47:29.221Z,6.40
2017-11-22T21:49:31.913Z,7.83
2017-11-22T21:51:34.593Z,7.37
2017-11-22T21:53:37.292Z,6.53
2017-11-22T21:55:39.962Z,6.60
2017-11-22T21:57:42.611Z,7.40
2017-11-22T21:59:45.289Z,7.70
2017-11-22T22:01:47.935Z,7.57
2017-11-22T22:03:50.631Z,8.27
2017-11-22T22:05:53.308Z,7.57
2017-11-22T22:07:56.123Z,7.50
2017-11-22T22:09:58.783Z,7.97
2017-11-22T22:12:02.228Z,7.93
2017-11-22T22:14:05.030Z,7.80
2017-11-22T22:16:07.683Z,7.43
2017-11-22T22:18:10.382Z,6.90
2017-11-22T22:20:13.027Z,7.40
2017-11-22T22:22:16.456Z,7.77
2017-11-22T22:24:19.224Z,8.20
2017-11-22T22:26:21.880Z,7.17
2017-11-22T22:28:24.719Z,6.63
2017-11-22T22:30:27.465Z,6.97
2017-11-22T22:32:30.114Z,7.73
2017-11-22T22:34:32.941Z,7.80
2017-11-22T22:36:35.613Z,7.03
2017-11-22T22:38:38.283Z,7.60
2017-11-22T22:40:40.936Z,7.57
2017-11-22T22:42:43.608Z,7.40
2017-11-22T22:44:46.271Z,8.00
2017-11-22T22:46:48.952Z,9.20
2017-11-22T22:48:51.694Z,9.77
2017-11-22T22:50:54.360Z,9.07
2017-11-22T22:52:57.053Z,9.70
2017-11-22T22:54:59.717Z,10.10
2017-11-22T22:57:02.405Z,11.47
2017-11-22T22:59:05.105Z,11.03
2017-11-22T23:01:08.536Z,10.00
2017-11-22T23:03:11.178Z,9.20
2017-11-22T23:05:13.855Z,8.70
2017-11-22T23:07:16.505Z,7.80
2017-11-22T23:09:20.252Z,8.10
2017-11-22T23:11:22.949Z,7.63
2017-11-22T23:13:25.633Z,7.80
2017-11-22T23:15:28.319Z,7.50
2017-11-22T23:17:31.230Z,7.43
2017-11-22T23:19:34.657Z,6.57
2017-11-22T23:21:37.313Z,6.40
2017-11-22T23:23:40.130Z,7.10
2017-11-22T23:25:42.799Z,6.73
2017-11-22T23:27:45.569Z,6.90
2017-11-22T23:29:48.239Z,6.33
2017-11-22T23:31:50.894Z,6.67
2017-11-22T23:33:54.319Z,6.23
2017-11-22T23:35:57.047Z,7.20
2017-11-22T23:38:00.446Z,5.37
2017-11-22T23:40:03.892Z,6.10
2017-11-22T23:42:06.585Z,6.00
2017-11-22T23:44:09.228Z,6.20
2017-11-22T23:46:11.924Z,6.20
2017-11-22T23:48:14.591Z,6.47
2017-11-22T23:50:17.248Z,5.80
2017-11-22T23:52:19.948Z,6.30
2017-11-22T23:54:22.610Z,6.43
2017-11-22T23:56:25.508Z,5.90
2017-11-22T23:58:28.158Z,5.70
